sensor_id;sensor_type;location;lat;lon;timestamp;P1;durP1;ratioP1;P2;durP2;ratioP2
46447;SDS011;32145;50.390;30.778;2023-07-31T00:00:47;8.57;;;4.65;;
46447;SDS011;32145;50.390;30.778;2023-07-31T00:03:41;6.25;;;3.90;;
46447;SDS011;32145;50.390;30.778;2023-07-31T00:06:36;4.90;;;3.40;;
46447;SDS011;32145;50.390;30.778;2023-07-31T00:09:30;6.53;;;3.83;;
46447;SDS011;32145;50.390;30.778;2023-07-31T00:12:24;8.32;;;3.92;;
46447;SDS011;32145;50.390;30.778;2023-07-31T00:15:19;6.32;;;3.83;;
46447;SDS011;32145;50.390;30.778;2023-07-31T00:18:15;9.35;;;3.85;;
46447;SDS011;32145;50.390;30.778;2023-07-31T00:21:09;9.15;;;4.07;;
46447;SDS011;32145;50.390;30.778;2023-07-31T00:24:04;6.25;;;3.70;;
46447;SDS011;32145;50.390;30.778;2023-07-31T00:26:58;8.93;;;3.97;;
46447;SDS011;32145;50.390;30.778;2023-07-31T00:29:53;8.45;;;4.22;;
46447;SDS011;32145;50.390;30.778;2023-07-31T00:32:47;6.40;;;4.20;;
46447;SDS011;32145;50.390;30.778;2023-07-31T00:35:43;8.63;;;4.20;;
46447;SDS011;32145;50.390;30.778;2023-07-31T00:38:37;6.88;;;4.32;;
46447;SDS011;32145;50.390;30.778;2023-07-31T00:41:32;6.15;;;4.32;;
46447;SDS011;32145;50.390;30.778;2023-07-31T00:44:26;6.20;;;4.25;;
46447;SDS011;32145;50.390;30.778;2023-07-31T00:47:20;9.25;;;4.30;;
46447;SDS011;32145;50.390;30.778;2023-07-31T00:50:16;5.85;;;4.28;;
46447;SDS011;32145;50.390;30.778;2023-07-31T00:53:14;6.20;;;3.90;;
46447;SDS011;32145;50.390;30.778;2023-07-31T00:56:10;7.10;;;4.78;;
46447;SDS011;32145;50.390;30.778;2023-07-31T00:59:07;7.38;;;5.22;;
46447;SDS011;32145;50.390;30.778;2023-07-31T01:02:03;8.15;;;4.50;;
46447;SDS011;32145;50.390;30.778;2023-07-31T01:05:00;6.57;;;4.03;;
46447;SDS011;32145;50.390;30.778;2023-07-31T01:07:59;5.68;;;4.22;;
46447;SDS011;32145;50.390;30.778;2023-07-31T01:11:07;6.13;;;4.13;;
46447;SDS011;32145;50.390;30.778;2023-07-31T01:14:11;6.70;;;4.35;;
46447;SDS011;32145;50.390;30.778;2023-07-31T01:17:07;7.43;;;4.50;;
46447;SDS011;32145;50.390;30.778;2023-07-31T01:20:04;7.15;;;4.25;;
46447;SDS011;32145;50.390;30.778;2023-07-31T01:23:10;6.35;;;4.32;;
46447;SDS011;32145;50.390;30.778;2023-07-31T01:26:24;5.88;;;4.50;;
46447;SDS011;32145;50.390;30.778;2023-07-31T01:29:25;6.72;;;4.07;;
46447;SDS011;32145;50.390;30.778;2023-07-31T01:32:28;5.10;;;3.80;;
46447;SDS011;32145;50.390;30.778;2023-07-31T01:35:25;6.85;;;4.30;;
46447;SDS011;32145;50.390;30.778;2023-07-31T01:38:21;6.53;;;4.60;;
46447;SDS011;32145;50.390;30.778;2023-07-31T01:41:18;4.57;;;3.70;;
46447;SDS011;32145;50.390;30.778;2023-07-31T01:44:15;5.95;;;4.03;;
46447;SDS011;32145;50.390;30.778;2023-07-31T01:47:11;5.78;;;4.28;;
46447;SDS011;32145;50.390;30.778;2023-07-31T01:50:08;6.65;;;3.85;;
46447;SDS011;32145;50.390;30.778;2023-07-31T01:53:05;7.05;;;4.07;;
46447;SDS011;32145;50.390;30.778;2023-07-31T01:56:01;8.35;;;4.60;;
46447;SDS011;32145;50.390;30.778;2023-07-31T01:58:58;6.40;;;4.20;;
46447;SDS011;32145;50.390;30.778;2023-07-31T02:01:55;8.25;;;4.10;;
46447;SDS011;32145;50.390;30.778;2023-07-31T02:04:52;5.88;;;4.18;;
46447;SDS011;32145;50.390;30.778;2023-07-31T02:07:48;5.95;;;4.07;;
46447;SDS011;32145;50.390;30.778;2023-07-31T02:10:45;6.55;;;3.80;;
46447;SDS011;32145;50.390;30.778;2023-07-31T02:13:41;6.28;;;4.00;;
46447;SDS011;32145;50.390;30.778;2023-07-31T02:16:37;6.22;;;3.80;;
46447;SDS011;32145;50.390;30.778;2023-07-31T02:19:35;5.85;;;3.67;;
46447;SDS011;32145;50.390;30.778;2023-07-31T02:22:29;6.47;;;4.35;;
46447;SDS011;32145;50.390;30.778;2023-07-31T02:25:23;5.03;;;3.95;;
46447;SDS011;32145;50.390;30.778;2023-07-31T02:28:18;5.53;;;4.13;;
46447;SDS011;32145;50.390;30.778;2023-07-31T02:31:12;6.22;;;3.92;;
46447;SDS011;32145;50.390;30.778;2023-07-31T02:34:07;7.95;;;4.45;;
46447;SDS011;32145;50.390;30.778;2023-07-31T02:37:02;6.85;;;5.28;;
46447;SDS011;32145;50.390;30.778;2023-07-31T02:39:57;6.80;;;4.82;;
46447;SDS011;32145;50.390;30.778;2023-07-31T02:42:51;7.55;;;5.55;;
46447;SDS011;32145;50.390;30.778;2023-07-31T02:45:50;9.07;;;6.57;;
46447;SDS011;32145;50.390;30.778;2023-07-31T02:48:47;14.55;;;7.68;;
46447;SDS011;32145;50.390;30.778;2023-07-31T02:51:43;18.05;;;9.00;;
46447;SDS011;32145;50.390;30.778;2023-07-31T02:54:40;13.50;;;8.07;;
46447;SDS011;32145;50.390;30.778;2023-07-31T02:57:37;16.40;;;8.73;;
46447;SDS011;32145;50.390;30.778;2023-07-31T03:00:33;18.50;;;8.45;;
46447;SDS011;32145;50.390;30.778;2023-07-31T03:03:27;24.60;;;8.93;;
46447;SDS011;32145;50.390;30.778;2023-07-31T03:06:22;32.95;;;9.13;;
46447;SDS011;32145;50.390;30.778;2023-07-31T03:09:16;12.57;;;7.68;;
46447;SDS011;32145;50.390;30.778;2023-07-31T03:12:12;23.20;;;9.27;;
46447;SDS011;32145;50.390;30.778;2023-07-31T03:15:06;18.55;;;8.65;;
46447;SDS011;32145;50.390;30.778;2023-07-31T03:18:02;23.85;;;9.05;;
46447;SDS011;32145;50.390;30.778;2023-07-31T03:20:58;34.33;;;8.88;;
46447;SDS011;32145;50.390;30.778;2023-07-31T03:23:54;26.25;;;9.45;;
46447;SDS011;32145;50.390;30.778;2023-07-31T03:26:49;24.67;;;8.90;;
46447;SDS011;32145;50.390;30.778;2023-07-31T03:29:44;25.60;;;9.43;;
46447;SDS011;32145;50.390;30.778;2023-07-31T03:32:39;24.10;;;9.00;;
46447;SDS011;32145;50.390;30.778;2023-07-31T03:35:33;25.88;;;8.90;;
46447;SDS011;32145;50.390;30.778;2023-07-31T03:38:27;21.15;;;8.15;;
46447;SDS011;32145;50.390;30.778;2023-07-31T03:41:22;19.30;;;8.75;;
46447;SDS011;32145;50.390;30.778;2023-07-31T03:44:18;25.25;;;9.40;;
46447;SDS011;32145;50.390;30.778;2023-07-31T03:47:16;18.90;;;9.35;;
46447;SDS011;32145;50.390;30.778;2023-07-31T03:50:10;20.63;;;8.82;;
46447;SDS011;32145;50.390;30.778;2023-07-31T03:53:04;10.80;;;8.10;;
46447;SDS011;32145;50.390;30.778;2023-07-31T03:55:59;16.98;;;9.20;;
46447;SDS011;32145;50.390;30.778;2023-07-31T03:58:53;15.98;;;8.63;;
46447;SDS011;32145;50.390;30.778;2023-07-31T04:01:47;11.88;;;8.48;;
46447;SDS011;32145;50.390;30.778;2023-07-31T04:04:43;12.85;;;9.15;;
46447;SDS011;32145;50.390;30.778;2023-07-31T04:07:37;20.10;;;9.98;;
46447;SDS011;32145;50.390;30.778;2023-07-31T04:10:32;16.40;;;9.55;;
46447;SDS011;32145;50.390;30.778;2023-07-31T04:13:26;10.77;;;8.93;;
46447;SDS011;32145;50.390;30.778;2023-07-31T04:16:20;12.73;;;9.55;;
46447;SDS011;32145;50.390;30.778;2023-07-31T04:19:14;14.50;;;8.70;;
46447;SDS011;32145;50.390;30.778;2023-07-31T04:22:10;11.07;;;9.02;;
46447;SDS011;32145;50.390;30.778;2023-07-31T04:25:05;12.32;;;10.00;;
46447;SDS011;32145;50.390;30.778;2023-07-31T04:27:59;12.90;;;9.90;;
46447;SDS011;32145;50.390;30.778;2023-07-31T04:30:53;16.50;;;10.07;;
46447;SDS011;32145;50.390;30.778;2023-07-31T04:33:48;11.10;;;9.02;;
46447;SDS011;32145;50.390;30.778;2023-07-31T04:36:42;12.48;;;9.85;;
46447;SDS011;32145;50.390;30.778;2023-07-31T04:39:40;12.20;;;9.30;;
46447;SDS011;32145;50.390;30.778;2023-07-31T04:42:36;12.25;;;10.40;;
46447;SDS011;32145;50.390;30.778;2023-07-31T04:45:32;14.00;;;10.25;;
46447;SDS011;32145;50.390;30.778;2023-07-31T04:48:29;12.20;;;10.07;;
46447;SDS011;32145;50.390;30.778;2023-07-31T04:51:25;12.32;;;10.05;;
46447;SDS011;32145;50.390;30.778;2023-07-31T04:54:19;13.10;;;10.55;;
46447;SDS011;32145;50.390;30.778;2023-07-31T04:57:15;14.70;;;11.27;;
46447;SDS011;32145;50.390;30.778;2023-07-31T05:00:11;11.75;;;10.32;;
46447;SDS011;32145;50.390;30.778;2023-07-31T05:03:08;13.77;;;10.48;;
46447;SDS011;32145;50.390;30.778;2023-07-31T05:06:04;11.73;;;10.23;;
46447;SDS011;32145;50.390;30.778;2023-07-31T05:09:00;12.85;;;11.25;;
46447;SDS011;32145;50.390;30.778;2023-07-31T05:11:57;13.07;;;10.88;;
46447;SDS011;32145;50.390;30.778;2023-07-31T05:14:54;12.48;;;10.98;;
46447;SDS011;32145;50.390;30.778;2023-07-31T05:17:51;12.18;;;10.73;;
46447;SDS011;32145;50.390;30.778;2023-07-31T05:20:47;12.90;;;10.70;;
46447;SDS011;32145;50.390;30.778;2023-07-31T05:23:43;11.77;;;10.50;;
46447;SDS011;32145;50.390;30.778;2023-07-31T05:26:40;13.05;;;11.07;;
46447;SDS011;32145;50.390;30.778;2023-07-31T05:29:36;11.90;;;10.65;;
46447;SDS011;32145;50.390;30.778;2023-07-31T05:32:32;10.82;;;9.70;;
46447;SDS011;32145;50.390;30.778;2023-07-31T05:35:26;11.40;;;10.15;;
46447;SDS011;32145;50.390;30.778;2023-07-31T05:38:20;12.35;;;10.60;;
46447;SDS011;32145;50.390;30.778;2023-07-31T05:41:14;11.75;;;10.27;;
46447;SDS011;32145;50.390;30.778;2023-07-31T05:44:10;11.32;;;9.95;;
46447;SDS011;32145;50.390;30.778;2023-07-31T05:47:07;11.27;;;10.07;;
46447;SDS011;32145;50.390;30.778;2023-07-31T05:50:05;10.50;;;9.38;;
46447;SDS011;32145;50.390;30.778;2023-07-31T05:53:01;10.80;;;9.68;;
46447;SDS011;32145;50.390;30.778;2023-07-31T05:55:58;12.30;;;10.88;;
46447;SDS011;32145;50.390;30.778;2023-07-31T05:58:54;12.20;;;10.68;;
46447;SDS011;32145;50.390;30.778;2023-07-31T06:01:50;12.73;;;10.43;;
46447;SDS011;32145;50.390;30.778;2023-07-31T06:04:47;11.00;;;9.82;;
46447;SDS011;32145;50.390;30.778;2023-07-31T06:07:42;17.23;;;11.43;;
46447;SDS011;32145;50.390;30.778;2023-07-31T06:10:37;11.68;;;10.48;;
46447;SDS011;32145;50.390;30.778;2023-07-31T06:13:31;11.52;;;10.43;;
46447;SDS011;32145;50.390;30.778;2023-07-31T06:16:25;11.55;;;10.35;;
46447;SDS011;32145;50.390;30.778;2023-07-31T06:19:20;11.23;;;10.13;;
46447;SDS011;32145;50.390;30.778;2023-07-31T06:22:14;10.38;;;9.27;;
46447;SDS011;32145;50.390;30.778;2023-07-31T06:25:12;10.23;;;9.13;;
46447;SDS011;32145;50.390;30.778;2023-07-31T06:28:08;11.80;;;9.65;;
46447;SDS011;32145;50.390;30.778;2023-07-31T06:31:04;9.60;;;8.60;;
46447;SDS011;32145;50.390;30.778;2023-07-31T06:34:01;10.45;;;9.35;;
46447;SDS011;32145;50.390;30.778;2023-07-31T06:36:57;11.25;;;10.05;;
46447;SDS011;32145;50.390;30.778;2023-07-31T06:39:51;11.02;;;9.93;;
46447;SDS011;32145;50.390;30.778;2023-07-31T06:42:47;10.23;;;9.23;;
46447;SDS011;32145;50.390;30.778;2023-07-31T06:45:41;10.50;;;9.40;;
46447;SDS011;32145;50.390;30.778;2023-07-31T06:48:36;10.23;;;9.18;;
46447;SDS011;32145;50.390;30.778;2023-07-31T06:51:30;10.70;;;9.60;;
46447;SDS011;32145;50.390;30.778;2023-07-31T06:54:24;10.85;;;9.10;;
46447;SDS011;32145;50.390;30.778;2023-07-31T06:57:21;11.07;;;9.77;;
46447;SDS011;32145;50.390;30.778;2023-07-31T07:00:19;11.45;;;10.27;;
46447;SDS011;32145;50.390;30.778;2023-07-31T07:06:13;11.75;;;10.55;;
46447;SDS011;32145;50.390;30.778;2023-07-31T07:09:10;11.75;;;10.55;;
46447;SDS011;32145;50.390;30.778;2023-07-31T07:12:07;10.52;;;9.52;;
46447;SDS011;32145;50.390;30.778;2023-07-31T07:15:04;11.88;;;10.57;;
46447;SDS011;32145;50.390;30.778;2023-07-31T07:18:02;11.80;;;10.70;;
46447;SDS011;32145;50.390;30.778;2023-07-31T07:20:58;12.45;;;11.23;;
46447;SDS011;32145;50.390;30.778;2023-07-31T07:23:54;11.52;;;10.32;;
46447;SDS011;32145;50.390;30.778;2023-07-31T07:26:51;12.13;;;10.85;;
46447;SDS011;32145;50.390;30.778;2023-07-31T07:29:47;12.25;;;11.05;;
46447;SDS011;32145;50.390;30.778;2023-07-31T07:32:46;12.32;;;11.23;;
46447;SDS011;32145;50.390;30.778;2023-07-31T07:35:42;11.50;;;10.40;;
46447;SDS011;32145;50.390;30.778;2023-07-31T07:38:36;13.10;;;11.77;;
46447;SDS011;32145;50.390;30.778;2023-07-31T07:41:30;13.50;;;12.20;;
46447;SDS011;32145;50.390;30.778;2023-07-31T07:44:24;13.82;;;12.43;;
46447;SDS011;32145;50.390;30.778;2023-07-31T07:47:19;13.65;;;12.27;;
46447;SDS011;32145;50.390;30.778;2023-07-31T07:50:13;13.30;;;12.00;;
46447;SDS011;32145;50.390;30.778;2023-07-31T07:53:09;13.35;;;12.05;;
46447;SDS011;32145;50.390;30.778;2023-07-31T07:56:03;14.98;;;12.63;;
46447;SDS011;32145;50.390;30.778;2023-07-31T07:58:57;15.77;;;13.50;;
46447;SDS011;32145;50.390;30.778;2023-07-31T08:01:52;18.33;;;16.38;;
46447;SDS011;32145;50.390;30.778;2023-07-31T08:04:46;15.75;;;14.15;;
46447;SDS011;32145;50.390;30.778;2023-07-31T08:07:42;14.95;;;13.45;;
46447;SDS011;32145;50.390;30.778;2023-07-31T08:10:40;14.00;;;12.27;;
46447;SDS011;32145;50.390;30.778;2023-07-31T08:13:36;15.02;;;12.90;;
46447;SDS011;32145;50.390;30.778;2023-07-31T08:16:33;12.98;;;11.68;;
46447;SDS011;32145;50.390;30.778;2023-07-31T08:19:29;13.52;;;12.10;;
46447;SDS011;32145;50.390;30.778;2023-07-31T08:22:26;13.32;;;12.00;;
46447;SDS011;32145;50.390;30.778;2023-07-31T08:25:22;13.52;;;12.13;;
46447;SDS011;32145;50.390;30.778;2023-07-31T08:28:20;11.80;;;10.60;;
46447;SDS011;32145;50.390;30.778;2023-07-31T08:31:16;11.95;;;10.68;;
46447;SDS011;32145;50.390;30.778;2023-07-31T08:34:12;11.75;;;10.50;;
46447;SDS011;32145;50.390;30.778;2023-07-31T08:37:09;11.27;;;9.90;;
46447;SDS011;32145;50.390;30.778;2023-07-31T08:40:05;12.32;;;11.02;;
46447;SDS011;32145;50.390;30.778;2023-07-31T08:43:02;11.75;;;10.48;;
46447;SDS011;32145;50.390;30.778;2023-07-31T08:46:00;12.07;;;10.82;;
46447;SDS011;32145;50.390;30.778;2023-07-31T08:48:57;11.35;;;10.15;;
46447;SDS011;32145;50.390;30.778;2023-07-31T08:51:52;12.68;;;10.35;;
46447;SDS011;32145;50.390;30.778;2023-07-31T08:54:48;11.00;;;8.77;;
46447;SDS011;32145;50.390;30.778;2023-07-31T08:57:43;10.48;;;9.38;;
46447;SDS011;32145;50.390;30.778;2023-07-31T09:00:37;9.73;;;8.63;;
46447;SDS011;32145;50.390;30.778;2023-07-31T09:03:36;9.32;;;8.32;;
46447;SDS011;32145;50.390;30.778;2023-07-31T09:06:34;9.80;;;8.80;;
46447;SDS011;32145;50.390;30.778;2023-07-31T09:09:31;8.57;;;7.60;;
46447;SDS011;32145;50.390;30.778;2023-07-31T09:12:28;8.57;;;7.68;;
46447;SDS011;32145;50.390;30.778;2023-07-31T09:15:24;10.65;;;7.95;;
46447;SDS011;32145;50.390;30.778;2023-07-31T09:18:21;9.73;;;8.73;;
46447;SDS011;32145;50.390;30.778;2023-07-31T09:21:18;10.88;;;9.07;;
46447;SDS011;32145;50.390;30.778;2023-07-31T09:24:16;9.98;;;8.57;;
46447;SDS011;32145;50.390;30.778;2023-07-31T09:27:21;9.77;;;8.60;;
46447;SDS011;32145;50.390;30.778;2023-07-31T09:30:17;9.73;;;8.38;;
46447;SDS011;32145;50.390;30.778;2023-07-31T09:33:14;9.15;;;8.10;;
46447;SDS011;32145;50.390;30.778;2023-07-31T09:36:10;8.35;;;7.45;;
46447;SDS011;32145;50.390;30.778;2023-07-31T09:39:09;10.77;;;8.70;;
46447;SDS011;32145;50.390;30.778;2023-07-31T09:42:06;9.52;;;8.43;;
46447;SDS011;32145;50.390;30.778;2023-07-31T09:45:09;9.20;;;8.20;;
46447;SDS011;32145;50.390;30.778;2023-07-31T09:48:06;7.82;;;7.03;;
46447;SDS011;32145;50.390;30.778;2023-07-31T09:51:04;8.15;;;7.32;;
46447;SDS011;32145;50.390;30.778;2023-07-31T09:54:00;9.30;;;8.00;;
46447;SDS011;32145;50.390;30.778;2023-07-31T09:56:58;10.55;;;8.38;;
46447;SDS011;32145;50.390;30.778;2023-07-31T09:59:55;12.32;;;8.63;;
46447;SDS011;32145;50.390;30.778;2023-07-31T10:02:53;12.35;;;8.85;;
46447;SDS011;32145;50.390;30.778;2023-07-31T10:05:53;10.57;;;9.38;;
46447;SDS011;32145;50.390;30.778;2023-07-31T10:08:51;9.85;;;8.63;;
46447;SDS011;32145;50.390;30.778;2023-07-31T10:11:50;9.90;;;8.68;;
46447;SDS011;32145;50.390;30.778;2023-07-31T10:14:52;10.88;;;9.07;;
46447;SDS011;32145;50.390;30.778;2023-07-31T10:17:48;12.43;;;9.13;;
46447;SDS011;32145;50.390;30.778;2023-07-31T10:20:33;10.25;;;9.05;;
46447;SDS011;32145;50.390;30.778;2023-07-31T10:23:29;10.27;;;8.85;;
46447;SDS011;32145;50.390;30.778;2023-07-31T10:26:24;9.75;;;8.75;;
46447;SDS011;32145;50.390;30.778;2023-07-31T10:29:19;11.77;;;9.05;;
46447;SDS011;32145;50.390;30.778;2023-07-31T10:32:17;10.80;;;8.98;;
46447;SDS011;32145;50.390;30.778;2023-07-31T10:35:12;10.75;;;9.63;;
46447;SDS011;32145;50.390;30.778;2023-07-31T10:38:11;12.02;;;9.27;;
46447;SDS011;32145;50.390;30.778;2023-07-31T10:41:09;9.90;;;8.43;;
46447;SDS011;32145;50.390;30.778;2023-07-31T10:44:05;8.25;;;7.15;;
46447;SDS011;32145;50.390;30.778;2023-07-31T10:47:03;8.13;;;6.93;;
46447;SDS011;32145;50.390;30.778;2023-07-31T10:50:13;8.05;;;7.20;;
46447;SDS011;32145;50.390;30.778;2023-07-31T10:53:22;8.65;;;7.45;;
46447;SDS011;32145;50.390;30.778;2023-07-31T10:56:19;8.02;;;7.22;;
46447;SDS011;32145;50.390;30.778;2023-07-31T10:59:15;8.88;;;7.97;;
46447;SDS011;32145;50.390;30.778;2023-07-31T11:02:23;8.90;;;8.00;;
46447;SDS011;32145;50.390;30.778;2023-07-31T11:05:21;9.02;;;7.32;;
46447;SDS011;32145;50.390;30.778;2023-07-31T11:08:35;7.95;;;7.15;;
46447;SDS011;32145;50.390;30.778;2023-07-31T11:11:35;8.57;;;7.15;;
46447;SDS011;32145;50.390;30.778;2023-07-31T11:14:30;9.55;;;7.40;;
46447;SDS011;32145;50.390;30.778;2023-07-31T11:17:24;8.77;;;6.40;;
46447;SDS011;32145;50.390;30.778;2023-07-31T11:20:19;8.07;;;6.85;;
46447;SDS011;32145;50.390;30.778;2023-07-31T11:23:15;8.82;;;6.57;;
46447;SDS011;32145;50.390;30.778;2023-07-31T11:26:10;8.85;;;6.88;;
46447;SDS011;32145;50.390;30.778;2023-07-31T11:28:56;8.13;;;7.20;;
46447;SDS011;32145;50.390;30.778;2023-07-31T11:31:52;9.05;;;7.72;;
46447;SDS011;32145;50.390;30.778;2023-07-31T11:34:52;8.88;;;7.50;;
46447;SDS011;32145;50.390;30.778;2023-07-31T11:37:49;8.60;;;7.45;;
46447;SDS011;32145;50.390;30.778;2023-07-31T11:40:45;9.20;;;7.75;;
46447;SDS011;32145;50.390;30.778;2023-07-31T11:43:40;8.32;;;7.28;;
46447;SDS011;32145;50.390;30.778;2023-07-31T11:46:34;8.00;;;7.20;;
46447;SDS011;32145;50.390;30.778;2023-07-31T11:49:29;8.77;;;7.88;;
46447;SDS011;32145;50.390;30.778;2023-07-31T11:52:27;8.88;;;7.43;;
46447;SDS011;32145;50.390;30.778;2023-07-31T11:55:25;8.80;;;7.50;;
46447;SDS011;32145;50.390;30.778;2023-07-31T11:58:22;7.60;;;6.80;;
46447;SDS011;32145;50.390;30.778;2023-07-31T12:01:19;8.43;;;7.28;;
46447;SDS011;32145;50.390;30.778;2023-07-31T12:04:18;9.40;;;7.70;;
46447;SDS011;32145;50.390;30.778;2023-07-31T12:07:14;9.13;;;7.10;;
46447;SDS011;32145;50.390;30.778;2023-07-31T12:10:11;8.40;;;7.18;;
46447;SDS011;32145;50.390;30.778;2023-07-31T12:13:09;8.00;;;6.50;;
46447;SDS011;32145;50.390;30.778;2023-07-31T12:16:06;7.43;;;6.40;;
46447;SDS011;32145;50.390;30.778;2023-07-31T12:19:04;7.50;;;6.70;;
46447;SDS011;32145;50.390;30.778;2023-07-31T12:22:01;7.75;;;6.60;;
46447;SDS011;32145;50.390;30.778;2023-07-31T12:24:55;7.35;;;6.28;;
46447;SDS011;32145;50.390;30.778;2023-07-31T12:27:50;7.35;;;6.30;;
46447;SDS011;32145;50.390;30.778;2023-07-31T12:30:45;8.30;;;6.45;;
46447;SDS011;32145;50.390;30.778;2023-07-31T12:33:42;8.93;;;6.57;;
46447;SDS011;32145;50.390;30.778;2023-07-31T12:36:39;7.18;;;5.95;;
46447;SDS011;32145;50.390;30.778;2023-07-31T12:39:33;6.80;;;5.95;;
46447;SDS011;32145;50.390;30.778;2023-07-31T12:42:28;8.60;;;6.30;;
46447;SDS011;32145;50.390;30.778;2023-07-31T12:45:24;6.47;;;5.60;;
46447;SDS011;32145;50.390;30.778;2023-07-31T12:48:20;6.38;;;5.50;;
46447;SDS011;32145;50.390;30.778;2023-07-31T12:51:14;7.95;;;5.43;;
46447;SDS011;32145;50.390;30.778;2023-07-31T12:54:08;6.57;;;5.28;;
46447;SDS011;32145;50.390;30.778;2023-07-31T12:57:03;6.63;;;5.30;;
46447;SDS011;32145;50.390;30.778;2023-07-31T12:59:57;6.50;;;5.30;;
46447;SDS011;32145;50.390;30.778;2023-07-31T13:02:51;5.60;;;5.00;;
46447;SDS011;32145;50.390;30.778;2023-07-31T13:05:47;6.38;;;4.85;;
46447;SDS011;32145;50.390;30.778;2023-07-31T13:08:41;5.82;;;5.07;;
46447;SDS011;32145;50.390;30.778;2023-07-31T13:11:36;6.32;;;4.50;;
46447;SDS011;32145;50.390;30.778;2023-07-31T13:14:30;6.78;;;5.00;;
46447;SDS011;32145;50.390;30.778;2023-07-31T13:17:27;6.82;;;5.10;;
46447;SDS011;32145;50.390;30.778;2023-07-31T13:20:23;6.50;;;4.65;;
46447;SDS011;32145;50.390;30.778;2023-07-31T13:23:21;6.00;;;5.05;;
46447;SDS011;32145;50.390;30.778;2023-07-31T13:26:11;7.38;;;4.75;;
46447;SDS011;32145;50.390;30.778;2023-07-31T13:29:06;6.03;;;5.00;;
46447;SDS011;32145;50.390;30.778;2023-07-31T13:32:00;6.15;;;5.05;;
46447;SDS011;32145;50.390;30.778;2023-07-31T13:34:57;5.03;;;4.28;;
46447;SDS011;32145;50.390;30.778;2023-07-31T13:37:53;6.75;;;4.60;;
46447;SDS011;32145;50.390;30.778;2023-07-31T13:40:50;5.32;;;4.32;;
46447;SDS011;32145;50.390;30.778;2023-07-31T13:43:47;5.85;;;4.68;;
46447;SDS011;32145;50.390;30.778;2023-07-31T13:46:43;5.15;;;4.18;;
46447;SDS011;32145;50.390;30.778;2023-07-31T13:49:40;5.25;;;4.38;;
46447;SDS011;32145;50.390;30.778;2023-07-31T13:52:36;5.07;;;4.00;;
46447;SDS011;32145;50.390;30.778;2023-07-31T13:55:32;5.00;;;4.20;;
46447;SDS011;32145;50.390;30.778;2023-07-31T13:58:30;5.03;;;4.15;;
46447;SDS011;32145;50.390;30.778;2023-07-31T14:01:26;7.05;;;4.95;;
46447;SDS011;32145;50.390;30.778;2023-07-31T14:04:23;5.35;;;4.57;;
46447;SDS011;32145;50.390;30.778;2023-07-31T14:07:17;6.68;;;4.72;;
46447;SDS011;32145;50.390;30.778;2023-07-31T14:10:11;6.03;;;5.38;;
46447;SDS011;32145;50.390;30.778;2023-07-31T14:13:06;5.65;;;4.65;;
46447;SDS011;32145;50.390;30.778;2023-07-31T14:16:01;6.40;;;4.68;;
46447;SDS011;32145;50.390;30.778;2023-07-31T14:18:55;6.63;;;4.72;;
46447;SDS011;32145;50.390;30.778;2023-07-31T14:21:50;4.93;;;4.28;;
46447;SDS011;32145;50.390;30.778;2023-07-31T14:24:46;5.63;;;4.68;;
46447;SDS011;32145;50.390;30.778;2023-07-31T14:27:40;5.63;;;5.00;;
46447;SDS011;32145;50.390;30.778;2023-07-31T14:30:37;6.00;;;4.90;;
46447;SDS011;32145;50.390;30.778;2023-07-31T14:33:35;5.05;;;4.22;;
46447;SDS011;32145;50.390;30.778;2023-07-31T14:36:31;6.20;;;4.90;;
46447;SDS011;32145;50.390;30.778;2023-07-31T14:39:27;6.20;;;5.18;;
46447;SDS011;32145;50.390;30.778;2023-07-31T14:42:24;5.38;;;4.70;;
46447;SDS011;32145;50.390;30.778;2023-07-31T14:45:20;6.72;;;4.68;;
46447;SDS011;32145;50.390;30.778;2023-07-31T14:48:16;7.15;;;5.82;;
46447;SDS011;32145;50.390;30.778;2023-07-31T14:51:14;5.85;;;4.70;;
46447;SDS011;32145;50.390;30.778;2023-07-31T14:54:10;7.00;;;4.68;;
46447;SDS011;32145;50.390;30.778;2023-07-31T14:57:08;6.70;;;5.00;;
46447;SDS011;32145;50.390;30.778;2023-07-31T15:00:05;6.78;;;4.80;;
46447;SDS011;32145;50.390;30.778;2023-07-31T15:03:03;6.83;;;5.47;;
46447;SDS011;32145;50.390;30.778;2023-07-31T15:05:59;5.97;;;4.68;;
46447;SDS011;32145;50.390;30.778;2023-07-31T15:08:57;7.32;;;5.38;;
46447;SDS011;32145;50.390;30.778;2023-07-31T15:11:53;6.90;;;5.15;;
46447;SDS011;32145;50.390;30.778;2023-07-31T15:14:49;7.70;;;6.00;;
46447;SDS011;32145;50.390;30.778;2023-07-31T15:17:46;7.13;;;5.50;;
46447;SDS011;32145;50.390;30.778;2023-07-31T15:20:42;9.23;;;6.35;;
46447;SDS011;32145;50.390;30.778;2023-07-31T15:23:38;8.65;;;7.22;;
46447;SDS011;32145;50.390;30.778;2023-07-31T15:26:24;7.70;;;6.13;;
46447;SDS011;32145;50.390;30.778;2023-07-31T15:29:08;7.93;;;6.35;;
46447;SDS011;32145;50.390;30.778;2023-07-31T15:32:04;10.65;;;6.45;;
46447;SDS011;32145;50.390;30.778;2023-07-31T15:35:01;8.80;;;7.00;;
46447;SDS011;32145;50.390;30.778;2023-07-31T15:37:58;9.77;;;6.15;;
46447;SDS011;32145;50.390;30.778;2023-07-31T15:40:54;9.48;;;6.82;;
46447;SDS011;32145;50.390;30.778;2023-07-31T15:43:52;8.23;;;6.53;;
46447;SDS011;32145;50.390;30.778;2023-07-31T15:46:36;9.68;;;6.97;;
46447;SDS011;32145;50.390;30.778;2023-07-31T15:49:20;9.13;;;6.70;;
46447;SDS011;32145;50.390;30.778;2023-07-31T15:52:04;7.72;;;6.40;;
46447;SDS011;32145;50.390;30.778;2023-07-31T15:54:49;9.63;;;6.80;;
46447;SDS011;32145;50.390;30.778;2023-07-31T15:57:33;10.15;;;7.18;;
46447;SDS011;32145;50.390;30.778;2023-07-31T16:00:19;12.88;;;6.68;;
46447;SDS011;32145;50.390;30.778;2023-07-31T16:03:09;8.65;;;7.05;;
46447;SDS011;32145;50.390;30.778;2023-07-31T16:05:53;10.48;;;6.75;;
46447;SDS011;32145;50.390;30.778;2023-07-31T16:08:37;10.38;;;7.40;;
46447;SDS011;32145;50.390;30.778;2023-07-31T16:11:21;9.73;;;7.05;;
46447;SDS011;32145;50.390;30.778;2023-07-31T16:14:05;9.93;;;7.00;;
46447;SDS011;32145;50.390;30.778;2023-07-31T16:17:01;11.40;;;7.38;;
46447;SDS011;32145;50.390;30.778;2023-07-31T16:19:49;9.75;;;7.78;;
46447;SDS011;32145;50.390;30.778;2023-07-31T16:22:44;11.15;;;7.60;;
46447;SDS011;32145;50.390;30.778;2023-07-31T16:25:32;9.67;;;7.40;;
46447;SDS011;32145;50.390;30.778;2023-07-31T16:28:27;10.55;;;8.07;;
46447;SDS011;32145;50.390;30.778;2023-07-31T16:31:21;9.50;;;7.90;;
46447;SDS011;32145;50.390;30.778;2023-07-31T16:34:17;10.07;;;7.80;;
46447;SDS011;32145;50.390;30.778;2023-07-31T16:37:11;10.55;;;7.25;;
46447;SDS011;32145;50.390;30.778;2023-07-31T16:40:06;10.00;;;7.43;;
46447;SDS011;32145;50.390;30.778;2023-07-31T16:43:01;12.13;;;7.40;;
46447;SDS011;32145;50.390;30.778;2023-07-31T16:45:55;12.73;;;7.68;;
46447;SDS011;32145;50.390;30.778;2023-07-31T16:48:49;11.85;;;7.88;;
46447;SDS011;32145;50.390;30.778;2023-07-31T16:51:35;11.23;;;8.23;;
46447;SDS011;32145;50.390;30.778;2023-07-31T16:54:19;12.45;;;8.05;;
46447;SDS011;32145;50.390;30.778;2023-07-31T16:57:15;11.98;;;8.57;;
46447;SDS011;32145;50.390;30.778;2023-07-31T17:00:12;12.15;;;7.90;;
46447;SDS011;32145;50.390;30.778;2023-07-31T17:03:08;10.45;;;7.30;;
46447;SDS011;32145;50.390;30.778;2023-07-31T17:06:04;12.95;;;7.72;;
46447;SDS011;32145;50.390;30.778;2023-07-31T17:09:00;9.00;;;7.30;;
46447;SDS011;32145;50.390;30.778;2023-07-31T17:11:54;9.55;;;7.20;;
46447;SDS011;32145;50.390;30.778;2023-07-31T17:14:49;9.88;;;7.03;;